LTCO

Ağrı Airport

Turkey
TAF LTCO 211340Z 2115/2124 09009KT 9999 FEW035TCU SCT040 TEMPO 2115/2117 TS FEW030CB SCT035 BECMG 2118/2120 CAVOK
Issued Valid From Valid To
Jun-21 @ 13:40 UTC
(5 hours ago)
Jun-21 @ 15:00 UTC
(3 hours ago)
Jun-22 @ 00:00 UTC
(in 6 hours)
Expired Click to View Jun-21 @ 15:00 to Jun-21 @ 18:00
TAF LTCO 211340Z 2115/2124 09009KT 9999 FEW035TCU SCT040
Wind Visibility Clouds
90° at 9 knots 10,000+ meters
  • Few at 3,500' AGL
  • Scattered at 4,000' AGL
Expired Click to View Jun-21 @ 15:00 to Jun-21 @ 17:00
TEMPO 2115/2117 TS FEW030CB SCT035
Clouds Conditions
  • Few at 3,000' AGL
  • Scattered at 3,500' AGL
  • Thunderstorm
Becoming Jun-21 @ 18:00 to Jun-22 @ 00:00
BECMG 2118/2120 CAVOK
Wind Visibility Clouds Conditions
90° at 9 knots 10,000+ meters
  • No significant clouds
TAF LTCO 211340Z 2115/2124 09009KT 9999 FEW035TCU SCT040 TEMPO 2115/2117 TS FEW030CB SCT035 BECMG 2118/2120 CAVOK
Issued Jun-21 @ 13:40 UTC
(5 hours ago)
Valid From Jun-21 @ 15:00 UTC
(3 hours ago)
Valid To Jun-22 @ 00:00 UTC
(in 6 hours)
Jun-21 @ 15:00 - Jun-21 @ 18:00
Wind Visibility
90° at 9 knots 10,000+ meters
Clouds
  • Few at 3,500' AGL
  • Scattered at 4,000' AGL
Jun-21 @ 15:00 - Jun-21 @ 17:00
Clouds
  • Few at 3,000' AGL
  • Scattered at 3,500' AGL
Conditions
  • Thunderstorm
Becoming Jun-21 @ 18:00 - Jun-22 @ 00:00
Wind Visibility
90° at 9 knots 10,000+ meters
Clouds
  • No significant clouds
Conditions